Time;durP1;ratioP1;P1;durP2;ratioP2;P2;SDS_P1;SDS_P2;PMS_P1;PMS_P2;Temp;Humidity;BMP_temperature;BMP_pressure;BME280_temperature;BME280_humidity;BME280_pressure;Samples;Min_cycle;Max_cycle;Signal;HPM_P1;HPM_P2
2023/05/17 00:01:00;;;;;;;10.20;4.60;;;;;;;;;;5035551;28;20176;-69
2023/05/17 00:03:26;;;;;;;10.33;5.00;;;;;;;;;;5019888;28;20210;-69
2023/05/17 00:05:52;;;;;;;7.97;5.07;;;;;;;;;;5035259;28;20295;-69
2023/05/17 00:08:18;;;;;;;12.20;5.57;;;;;;;;;;5017316;28;20230;-69
2023/05/17 00:10:44;;;;;;;11.70;5.43;;;;;;;;;;5035499;28;20186;-69
2023/05/17 00:13:10;;;;;;;14.87;5.63;;;;;;;;;;5035259;28;20180;-69
2023/05/17 00:15:36;;;;;;;13.33;6.33;;;;;;;;;;5035058;28;20301;-69
2023/05/17 00:18:02;;;;;;;12.60;6.27;;;;;;;;;;5017218;28;20302;-69
2023/05/17 00:20:28;;;;;;;9.83;5.77;;;;;;;;;;5035028;28;20175;-68
2023/05/17 00:22:54;;;;;;;10.90;5.90;;;;;;;;;;5017209;28;20558;-69
2023/05/17 00:25:20;;;;;;;16.40;6.23;;;;;;;;;;5035132;28;20199;-69
2023/05/17 00:27:46;;;;;;;15.30;6.23;;;;;;;;;;5017013;28;20206;-69
2023/05/17 00:30:12;;;;;;;15.77;6.10;;;;;;;;;;5017026;28;20182;-69
2023/05/17 00:32:38;;;;;;;9.93;5.10;;;;;;;;;;5016933;28;20179;-69
2023/05/17 00:35:04;;;;;;;16.67;5.13;;;;;;;;;;5034876;28;20270;-69
2023/05/17 00:37:30;;;;;;;12.80;5.33;;;;;;;;;;5017686;28;20687;-69
2023/05/17 00:42:37;;;;;;;10.10;5.20;;;;;;;;;;5033880;28;20214;-64
2023/05/17 00:45:03;;;;;;;13.13;5.90;;;;;;;;;;5034483;28;20218;-66
2023/05/17 00:47:29;;;;;;;14.40;5.97;;;;;;;;;;5034652;28;20187;-66
2023/05/17 00:49:55;;;;;;;16.00;5.90;;;;;;;;;;5034405;28;20179;-66
2023/05/17 00:52:20;;;;;;;15.13;6.50;;;;;;;;;;5034210;28;20553;-64
2023/05/17 00:54:46;;;;;;;11.97;5.87;;;;;;;;;;5034246;28;20225;-67
2023/05/17 00:57:12;;;;;;;16.63;6.70;;;;;;;;;;5034456;28;20182;-67
2023/05/17 00:59:38;;;;;;;11.07;6.10;;;;;;;;;;5016563;28;20183;-68
2023/05/17 01:02:05;;;;;;;17.77;6.73;;;;;;;;;;5034314;28;20294;-67
2023/05/17 01:04:31;;;;;;;14.23;6.47;;;;;;;;;;5034008;28;20182;-70
2023/05/17 01:06:58;;;;;;;13.53;6.87;;;;;;;;;;5033948;28;20175;-69
2023/05/17 01:09:24;;;;;;;13.70;6.73;;;;;;;;;;5034211;28;20182;-68
2023/05/17 01:11:56;;;;;;;16.87;7.73;;;;;;;;;;5034011;28;20195;-69
2023/05/17 01:14:22;;;;;;;17.03;8.90;;;;;;;;;;5016195;28;20191;-68
2023/05/17 01:16:50;;;;;;;21.07;8.17;;;;;;;;;;5033718;28;20183;-66
2023/05/17 01:19:22;;;;;;;11.20;7.03;;;;;;;;;;5016128;28;20194;-68
2023/05/17 01:22:00;;;;;;;20.13;10.83;;;;;;;;;;5033705;28;20207;-68
2023/05/17 01:24:29;;;;;;;19.67;10.77;;;;;;;;;;5034218;28;20179;-68
2023/05/17 01:26:56;;;;;;;22.43;10.40;;;;;;;;;;5015954;28;20219;-68
2023/05/17 01:29:26;;;;;;;19.63;10.30;;;;;;;;;;5016084;28;20179;-68
2023/05/17 01:31:52;;;;;;;21.70;11.03;;;;;;;;;;5033699;28;20261;-69
2023/05/17 01:34:28;;;;;;;18.37;9.97;;;;;;;;;;5033773;28;20171;-68
2023/05/17 01:36:54;;;;;;;18.47;9.03;;;;;;;;;;5033687;28;20574;-67
2023/05/17 01:39:21;;;;;;;13.87;9.67;;;;;;;;;;5034002;28;20175;-69
2023/05/17 01:41:52;;;;;;;23.27;10.50;;;;;;;;;;5015856;28;20214;-68
2023/05/17 01:44:24;;;;;;;19.50;10.80;;;;;;;;;;5016036;28;20218;-69
2023/05/17 01:46:51;;;;;;;19.60;11.20;;;;;;;;;;5015893;28;20195;-69
2023/05/17 01:49:21;;;;;;;16.00;9.50;;;;;;;;;;5033729;28;20207;-68
2023/05/17 01:51:48;;;;;;;16.33;9.93;;;;;;;;;;5032715;28;20199;-68
2023/05/17 01:54:15;;;;;;;19.17;10.17;;;;;;;;;;5033382;28;20178;-68
2023/05/17 01:56:43;;;;;;;14.37;9.37;;;;;;;;;;5033314;28;20232;-68
2023/05/17 01:59:10;;;;;;;21.23;9.30;;;;;;;;;;5015617;28;20187;-67
2023/05/17 02:01:36;;;;;;;15.23;8.40;;;;;;;;;;5015638;28;20207;-68
2023/05/17 02:04:02;;;;;;;21.07;8.70;;;;;;;;;;5015540;28;20186;-69
2023/05/17 02:06:28;;;;;;;17.73;8.00;;;;;;;;;;5015508;28;20236;-67
2023/05/17 02:08:54;;;;;;;24.50;8.43;;;;;;;;;;5033630;28;20646;-69
2023/05/17 02:11:20;;;;;;;20.50;8.97;;;;;;;;;;5033271;28;20190;-69
2023/05/17 02:13:46;;;;;;;16.20;7.67;;;;;;;;;;5015836;28;20182;-69
2023/05/17 02:16:13;;;;;;;20.07;7.67;;;;;;;;;;5015711;28;20220;-68
2023/05/17 02:18:40;;;;;;;12.97;7.87;;;;;;;;;;5015636;28;20574;-67
2023/05/17 02:21:06;;;;;;;18.30;8.47;;;;;;;;;;5015558;28;20206;-67
2023/05/17 02:23:33;;;;;;;16.33;7.50;;;;;;;;;;5033256;28;20712;-67
2023/05/17 02:25:59;;;;;;;14.37;7.80;;;;;;;;;;5015461;28;20293;-68
2023/05/17 02:28:26;;;;;;;14.93;7.97;;;;;;;;;;5015413;28;20179;-68
2023/05/17 02:30:52;;;;;;;21.67;9.13;;;;;;;;;;5033011;28;20289;-68
2023/05/17 02:33:18;;;;;;;16.70;8.20;;;;;;;;;;5033081;28;20592;-68
2023/05/17 02:35:44;;;;;;;16.50;8.63;;;;;;;;;;5032916;28;20175;-69
2023/05/17 02:38:11;;;;;;;20.10;8.87;;;;;;;;;;5033654;28;20557;-70
2023/05/17 02:41:02;;;;;;;18.03;9.07;;;;;;;;;;5034274;28;20231;-69
2023/05/17 02:43:57;;;;;;;;;;;;;;;;;;;;;
2023/05/17 02:46:39;;;;;;;17.53;8.40;;;;;;;;;;5034152;28;20573;-69
2023/05/17 02:49:25;;;;;;;17.23;8.77;;;;;;;;;;5034599;28;20238;-70
2023/05/17 02:51:51;;;;;;;15.60;8.90;;;;;;;;;;5020581;28;20211;-69
2023/05/17 02:54:17;;;;;;;18.70;9.23;;;;;;;;;;5034639;28;20182;-69
2023/05/17 02:56:52;;;;;;;20.97;9.80;;;;;;;;;;5034020;28;20728;-69
2023/05/17 02:59:21;;;;;;;19.13;9.30;;;;;;;;;;5033855;28;20194;-68
2023/05/17 03:01:50;;;;;;;22.77;9.30;;;;;;;;;;4992749;28;20216;-70
2023/05/17 03:04:18;;;;;;;25.20;8.90;;;;;;;;;;4979052;28;20196;-68
2023/05/17 03:06:50;;;;;;;17.33;9.43;;;;;;;;;;5031825;28;20227;-67
2023/05/17 03:09:16;;;;;;;18.33;8.73;;;;;;;;;;5019190;28;20273;-67
2023/05/17 03:11:42;;;;;;;24.77;10.03;;;;;;;;;;5036356;28;20210;-68
2023/05/17 03:14:08;;;;;;;26.97;8.80;;;;;;;;;;5036679;28;20179;-67
2023/05/17 03:16:34;;;;;;;17.43;8.70;;;;;;;;;;5018471;28;20182;-68
2023/05/17 03:19:00;;;;;;;16.63;8.57;;;;;;;;;;5018856;28;20209;-68
2023/05/17 03:21:26;;;;;;;19.73;10.53;;;;;;;;;;5018982;28;20290;-68
2023/05/17 03:23:52;;;;;;;30.00;9.93;;;;;;;;;;5036119;28;20640;-68
2023/05/17 03:26:18;;;;;;;25.90;10.80;;;;;;;;;;5036207;28;20203;-69
2023/05/17 03:28:44;;;;;;;20.97;9.57;;;;;;;;;;5018224;28;20618;-69
2023/05/17 03:31:10;;;;;;;18.13;9.37;;;;;;;;;;5018134;28;20199;-68
2023/05/17 03:33:36;;;;;;;23.37;9.90;;;;;;;;;;5036149;28;20203;-68
2023/05/17 03:36:02;;;;;;;18.60;10.10;;;;;;;;;;5035882;28;20179;-67
2023/05/17 03:38:28;;;;;;;23.93;9.73;;;;;;;;;;5036195;28;20179;-67
2023/05/17 03:40:54;;;;;;;28.47;9.83;;;;;;;;;;5017994;28;20799;-69
2023/05/17 03:43:20;;;;;;;26.10;9.60;;;;;;;;;;5035841;28;20659;-67
2023/05/17 03:45:46;;;;;;;22.77;8.83;;;;;;;;;;5017961;28;20252;-69
2023/05/17 03:48:12;;;;;;;19.70;8.40;;;;;;;;;;5018024;28;20179;-68
2023/05/17 03:50:39;;;;;;;21.47;10.10;;;;;;;;;;5017768;28;20207;-68
2023/05/17 03:53:05;;;;;;;19.37;9.40;;;;;;;;;;5017970;28;20256;-67
2023/05/17 03:55:31;;;;;;;21.13;9.20;;;;;;;;;;5017851;28;20218;-68
2023/05/17 03:57:57;;;;;;;20.63;9.03;;;;;;;;;;5017761;28;20657;-69
2023/05/17 04:00:23;;;;;;;22.33;9.47;;;;;;;;;;5035340;28;20265;-67
2023/05/17 04:02:50;;;;;;;18.00;9.30;;;;;;;;;;5035441;28;20183;-69
2023/05/17 04:05:17;;;;;;;26.83;9.50;;;;;;;;;;5017760;28;20207;-68
2023/05/17 04:07:43;;;;;;;25.37;9.47;;;;;;;;;;5017678;28;20707;-67
2023/05/17 04:10:09;;;;;;;28.57;9.77;;;;;;;;;;5035360;28;20183;-68
2023/05/17 04:12:35;;;;;;;19.23;9.43;;;;;;;;;;5035257;28;20182;-68
2023/05/17 04:15:01;;;;;;;20.57;10.23;;;;;;;;;;5016517;28;20274;-68
2023/05/17 04:17:27;;;;;;;22.47;10.43;;;;;;;;;;5017484;28;20274;-68
2023/05/17 04:19:53;;;;;;;21.50;10.80;;;;;;;;;;5035145;28;20187;-68
2023/05/17 04:22:20;;;;;;;26.13;10.33;;;;;;;;;;5034980;28;20305;-67
2023/05/17 04:24:46;;;;;;;31.47;11.53;;;;;;;;;;5035080;28;20179;-68
2023/05/17 04:27:12;;;;;;;26.07;10.97;;;;;;;;;;5035191;28;20186;-68
2023/05/17 04:29:39;;;;;;;31.23;11.10;;;;;;;;;;5035219;28;20246;-67
2023/05/17 04:32:05;;;;;;;27.33;12.10;;;;;;;;;;5017151;28;20263;-69
2023/05/17 04:34:31;;;;;;;25.23;10.97;;;;;;;;;;5034745;28;20190;-67
2023/05/17 04:36:57;;;;;;;27.27;11.83;;;;;;;;;;5016892;28;20649;-67
2023/05/17 04:39:24;;;;;;;26.20;11.33;;;;;;;;;;5016985;28;20650;-68
2023/05/17 04:41:50;;;;;;;33.27;11.93;;;;;;;;;;5016766;28;20644;-68
2023/05/17 04:44:16;;;;;;;20.20;10.40;;;;;;;;;;5034756;28;20207;-68
2023/05/17 04:46:42;;;;;;;25.17;10.33;;;;;;;;;;5034885;28;20199;-70
2023/05/17 04:49:08;;;;;;;28.17;12.20;;;;;;;;;;5034758;28;20175;-68
2023/05/17 04:51:35;;;;;;;31.00;12.07;;;;;;;;;;5034614;28;20665;-68
2023/05/17 04:54:01;;;;;;;23.97;10.27;;;;;;;;;;5016854;28;20209;-68
2023/05/17 04:56:28;;;;;;;18.47;10.77;;;;;;;;;;5016669;28;20190;-68
2023/05/17 04:58:54;;;;;;;25.20;10.73;;;;;;;;;;5034494;28;20178;-68
2023/05/17 05:01:21;;;;;;;30.23;11.97;;;;;;;;;;5034356;28;20206;-67
2023/05/17 05:03:46;;;;;;;24.47;10.73;;;;;;;;;;5035024;28;20175;-67
2023/05/17 05:06:15;;;;;;;24.77;11.70;;;;;;;;;;5034486;28;20203;-67
2023/05/17 05:08:40;;;;;;;24.80;11.20;;;;;;;;;;5016839;28;20172;-67
2023/05/17 05:11:07;;;;;;;23.20;10.33;;;;;;;;;;5034770;28;20195;-67
2023/05/17 05:13:33;;;;;;;26.70;11.60;;;;;;;;;;5016631;28;20179;-67
2023/05/17 05:15:58;;;;;;;26.63;11.17;;;;;;;;;;5034277;28;20186;-67
2023/05/17 05:18:25;;;;;;;33.43;11.27;;;;;;;;;;5016243;28;20230;-67
2023/05/17 05:20:51;;;;;;;28.23;10.93;;;;;;;;;;5033806;28;20260;-67
2023/05/17 05:23:17;;;;;;;22.90;10.73;;;;;;;;;;5034134;28;20183;-67
2023/05/17 05:25:43;;;;;;;25.57;10.17;;;;;;;;;;5016455;28;20203;-67
2023/05/17 05:28:10;;;;;;;24.93;9.87;;;;;;;;;;5033817;28;20183;-67
2023/05/17 05:30:36;;;;;;;22.33;9.33;;;;;;;;;;5016313;28;20199;-67
2023/05/17 05:33:02;;;;;;;24.10;10.13;;;;;;;;;;5016287;28;20221;-67
2023/05/17 05:35:28;;;;;;;25.60;8.17;;;;;;;;;;5033890;28;20179;-67
2023/05/17 05:37:55;;;;;;;25.93;8.93;;;;;;;;;;5016049;28;20183;-68
2023/05/17 05:40:21;;;;;;;19.77;7.57;;;;;;;;;;5015988;28;20218;-66
2023/05/17 05:42:47;;;;;;;20.07;7.83;;;;;;;;;;5033563;28;20195;-66
2023/05/17 05:45:13;;;;;;;17.70;7.63;;;;;;;;;;5033508;28;20199;-66
2023/05/17 05:47:39;;;;;;;22.60;7.00;;;;;;;;;;5033770;28;20258;-66
2023/05/17 05:50:06;;;;;;;23.27;6.73;;;;;;;;;;5033478;28;20199;-66
2023/05/17 05:52:32;;;;;;;23.77;7.60;;;;;;;;;;5015751;28;20724;-66
2023/05/17 05:54:58;;;;;;;19.40;6.33;;;;;;;;;;5015690;28;20256;-66
2023/05/17 05:57:24;;;;;;;20.60;6.70;;;;;;;;;;5033604;28;20250;-66
2023/05/17 05:59:50;;;;;;;19.27;6.87;;;;;;;;;;5033631;28;20230;-66
2023/05/17 06:02:16;;;;;;;18.33;6.17;;;;;;;;;;5033534;28;20268;-66
2023/05/17 06:04:42;;;;;;;17.77;6.27;;;;;;;;;;5015525;28;20182;-66
2023/05/17 06:07:08;;;;;;;17.97;6.20;;;;;;;;;;5033413;28;20186;-64
2023/05/17 06:09:34;;;;;;;15.37;5.97;;;;;;;;;;5033262;28;20596;-68
2023/05/17 06:12:00;;;;;;;11.13;5.03;;;;;;;;;;5033149;28;20199;-67
2023/05/17 06:14:26;;;;;;;14.30;5.10;;;;;;;;;;5033204;28;20278;-67
2023/05/17 06:16:52;;;;;;;10.53;4.33;;;;;;;;;;5033325;28;20186;-67
2023/05/17 06:19:19;;;;;;;15.37;5.03;;;;;;;;;;5033354;28;20641;-67
2023/05/17 06:21:45;;;;;;;19.40;4.97;;;;;;;;;;5015575;28;20199;-68
2023/05/17 06:24:11;;;;;;;8.60;3.37;;;;;;;;;;5033752;28;20171;-67
2023/05/17 06:26:37;;;;;;;19.13;5.50;;;;;;;;;;5033065;28;20199;-68
2023/05/17 06:29:02;;;;;;;10.67;4.40;;;;;;;;;;5033428;28;20181;-67
2023/05/17 06:31:28;;;;;;;19.47;5.60;;;;;;;;;;5015288;28;20199;-67
2023/05/17 06:33:54;;;;;;;17.93;3.90;;;;;;;;;;5015516;28;20186;-67
2023/05/17 06:36:20;;;;;;;15.93;4.07;;;;;;;;;;5033640;28;20699;-67
2023/05/17 06:38:46;;;;;;;11.67;3.80;;;;;;;;;;5016920;28;20622;-67
2023/05/17 06:41:12;;;;;;;12.70;4.13;;;;;;;;;;5037236;28;20601;-69
2023/05/17 06:43:38;;;;;;;17.43;5.00;;;;;;;;;;5069391;22;20633;-69
2023/05/17 06:46:04;;;;;;;17.57;4.20;;;;;;;;;;5056550;28;20672;-70
2023/05/17 06:48:30;;;;;;;10.60;3.83;;;;;;;;;;5056997;28;20205;-68
2023/05/17 06:50:56;;;;;;;16.30;3.67;;;;;;;;;;5058015;28;20170;-69
2023/05/17 06:53:22;;;;;;;11.43;3.53;;;;;;;;;;5038590;28;20204;-69
2023/05/17 06:55:48;;;;;;;12.67;3.97;;;;;;;;;;5038640;28;20206;-69
2023/05/17 06:58:14;;;;;;;10.10;3.20;;;;;;;;;;5038943;28;20551;-69
2023/05/17 07:00:40;;;;;;;21.87;4.20;;;;;;;;;;5056435;28;20187;-69
2023/05/17 07:03:06;;;;;;;13.67;3.73;;;;;;;;;;5038378;28;20580;-69
2023/05/17 07:05:32;;;;;;;16.73;3.80;;;;;;;;;;5056248;28;20576;-69
2023/05/17 07:07:58;;;;;;;14.37;3.63;;;;;;;;;;5038422;28;20200;-69
2023/05/17 07:10:24;;;;;;;13.27;3.90;;;;;;;;;;5056487;28;20205;-69
2023/05/17 07:12:50;;;;;;;22.13;4.23;;;;;;;;;;5056194;28;20285;-69
2023/05/17 07:15:16;;;;;;;14.97;3.63;;;;;;;;;;5056082;28;20221;-69
2023/05/17 07:17:42;;;;;;;19.37;4.13;;;;;;;;;;5056014;28;20213;-69
2023/05/17 07:20:08;;;;;;;9.97;3.37;;;;;;;;;;5056166;28;20670;-69
2023/05/17 07:22:36;;;;;;;19.60;4.30;;;;;;;;;;5037938;28;20230;-69
2023/05/17 07:25:02;;;;;;;11.27;3.23;;;;;;;;;;5055888;28;20183;-69
2023/05/17 07:27:28;;;;;;;8.70;3.10;;;;;;;;;;5038015;28;20243;-69
2023/05/17 07:29:54;;;;;;;20.63;4.60;;;;;;;;;;5055868;28;20174;-71
2023/05/17 07:32:20;;;;;;;13.97;3.70;;;;;;;;;;5037956;28;20657;-69
2023/05/17 07:34:46;;;;;;;13.83;4.07;;;;;;;;;;5038123;28;20178;-69
2023/05/17 07:37:12;;;;;;;15.50;3.47;;;;;;;;;;5037854;28;20667;-69
2023/05/17 07:39:38;;;;;;;11.33;3.30;;;;;;;;;;5055715;28;20644;-69
2023/05/17 07:42:04;;;;;;;23.03;4.10;;;;;;;;;;5056705;28;20199;-69
2023/05/17 07:44:30;;;;;;;16.00;4.30;;;;;;;;;;5055869;28;20185;-69
2023/05/17 07:46:56;;;;;;;18.67;4.33;;;;;;;;;;5055566;28;20293;-69
2023/05/17 07:49:23;;;;;;;12.07;3.70;;;;;;;;;;5036777;28;20175;-69
2023/05/17 07:51:49;;;;;;;11.00;3.10;;;;;;;;;;5036862;28;20528;-69
2023/05/17 07:54:28;;;;;;;17.17;4.10;;;;;;;;;;5055530;28;20178;-69
2023/05/17 07:56:54;;;;;;;14.87;3.10;;;;;;;;;;5055310;28;20229;-69
2023/05/17 07:59:24;;;;;;;18.37;3.50;;;;;;;;;;5055422;28;20609;-69
2023/05/17 08:01:50;;;;;;;10.17;3.20;;;;;;;;;;5055148;28;20190;-69
2023/05/17 08:04:16;;;;;;;18.10;3.97;;;;;;;;;;5037397;28;20558;-69
2023/05/17 08:06:47;;;;;;;11.63;3.60;;;;;;;;;;5037343;28;20214;-69
2023/05/17 08:09:13;;;;;;;17.53;3.80;;;;;;;;;;5037267;28;20178;-69
2023/05/17 08:11:44;;;;;;;12.73;3.47;;;;;;;;;;5055100;28;20525;-69
2023/05/17 08:14:10;;;;;;;13.87;3.03;;;;;;;;;;5037148;28;20228;-67
2023/05/17 08:16:36;;;;;;;11.17;3.50;;;;;;;;;;5054894;28;20181;-69
2023/05/17 08:19:02;;;;;;;12.30;4.20;;;;;;;;;;5054847;28;20265;-69
2023/05/17 08:21:28;;;;;;;16.40;4.17;;;;;;;;;;5037060;28;20225;-69
2023/05/17 08:23:54;;;;;;;16.63;3.90;;;;;;;;;;5036903;28;20228;-69
2023/05/17 08:26:20;;;;;;;14.43;4.27;;;;;;;;;;5036924;28;20260;-69
2023/05/17 08:28:46;;;;;;;17.53;3.90;;;;;;;;;;5036784;28;20545;-69
2023/05/17 08:31:12;;;;;;;15.50;3.17;;;;;;;;;;5055079;28;20709;-69
2023/05/17 08:33:38;;;;;;;12.77;3.00;;;;;;;;;;5057122;28;20217;-69
2023/05/17 08:36:06;;;;;;;5.90;2.37;;;;;;;;;;5037474;28;20245;-68
2023/05/17 08:38:33;;;;;;;9.53;2.90;;;;;;;;;;5054977;28;20175;-68
2023/05/17 08:41:01;;;;;;;9.17;2.83;;;;;;;;;;5038168;28;20206;-69
2023/05/17 08:43:28;;;;;;;11.17;3.27;;;;;;;;;;5054512;28;20227;-69
2023/05/17 08:45:56;;;;;;;8.33;3.50;;;;;;;;;;5054424;28;20237;-69
2023/05/17 08:48:23;;;;;;;11.63;3.23;;;;;;;;;;5037570;28;20175;-69
2023/05/17 08:50:50;;;;;;;12.40;3.67;;;;;;;;;;5036517;28;20179;-69
2023/05/17 08:53:16;;;;;;;16.70;3.50;;;;;;;;;;5054286;28;20190;-69
2023/05/17 08:55:47;;;;;;;16.23;3.47;;;;;;;;;;5036560;28;20179;-69
2023/05/17 08:58:14;;;;;;;10.70;2.60;;;;;;;;;;5036264;28;20171;-69
2023/05/17 09:00:40;;;;;;;15.43;3.23;;;;;;;;;;5054083;28;20210;-69
2023/05/17 09:03:07;;;;;;;8.73;3.07;;;;;;;;;;5036046;28;20194;-68
2023/05/17 09:05:33;;;;;;;11.33;3.03;;;;;;;;;;5036133;28;20241;-69
2023/05/17 09:07:59;;;;;;;12.37;3.60;;;;;;;;;;5036212;28;20178;-69
2023/05/17 09:10:25;;;;;;;14.53;3.60;;;;;;;;;;5036138;28;20557;-69
2023/05/17 09:12:52;;;;;;;11.83;2.80;;;;;;;;;;5035922;28;20202;-69
2023/05/17 09:15:19;;;;;;;10.97;2.87;;;;;;;;;;5036086;28;20183;-69
2023/05/17 09:17:54;;;;;;;11.70;3.30;;;;;;;;;;5053817;28;20181;-69
2023/05/17 09:20:24;;;;;;;13.70;3.30;;;;;;;;;;5053794;28;20174;-69
2023/05/17 09:22:51;;;;;;;11.27;3.20;;;;;;;;;;5053840;28;20581;-69
2023/05/17 09:25:21;;;;;;;13.40;3.60;;;;;;;;;;5037524;28;20256;-68
2023/05/17 09:27:47;;;;;;;13.37;3.30;;;;;;;;;;5053655;28;20178;-69
2023/05/17 09:30:13;;;;;;;12.63;3.40;;;;;;;;;;5053646;28;20171;-69
2023/05/17 09:32:45;;;;;;;7.77;2.43;;;;;;;;;;5035886;28;20676;-69
2023/05/17 09:35:12;;;;;;;11.10;3.30;;;;;;;;;;5035664;28;20244;-69
2023/05/17 09:37:38;;;;;;;10.40;3.33;;;;;;;;;;5054064;28;20174;-69
2023/05/17 09:40:05;;;;;;;7.70;2.90;;;;;;;;;;5035635;28;20559;-69
2023/05/17 09:42:36;;;;;;;5.63;2.03;;;;;;;;;;5053014;28;20218;-69
2023/05/17 09:45:02;;;;;;;9.17;2.67;;;;;;;;;;5036531;28;20512;-69
2023/05/17 09:47:29;;;;;;;12.93;2.90;;;;;;;;;;5035634;28;20189;-69
2023/05/17 09:49:56;;;;;;;10.70;2.60;;;;;;;;;;5035439;28;20185;-69
2023/05/17 09:52:23;;;;;;;9.73;3.03;;;;;;;;;;5035601;28;20572;-69
2023/05/17 09:54:53;;;;;;;12.13;3.03;;;;;;;;;;5053534;28;20178;-69
2023/05/17 09:57:19;;;;;;;11.23;2.97;;;;;;;;;;5053394;28;20265;-69
2023/05/17 09:59:46;;;;;;;9.63;3.07;;;;;;;;;;5053596;28;20174;-68
2023/05/17 10:02:17;;;;;;;14.17;3.00;;;;;;;;;;5053803;28;20680;-69
2023/05/17 10:04:44;;;;;;;9.63;2.63;;;;;;;;;;5053727;28;20177;-69
2023/05/17 10:07:10;;;;;;;13.27;3.27;;;;;;;;;;5035663;28;20210;-69
2023/05/17 10:09:36;;;;;;;8.23;3.07;;;;;;;;;;5035485;28;20184;-69
2023/05/17 10:12:04;;;;;;;9.30;2.43;;;;;;;;;;5035276;28;20215;-69
2023/05/17 10:14:31;;;;;;;7.80;2.27;;;;;;;;;;5034594;28;20515;-69
2023/05/17 10:16:58;;;;;;;12.93;3.40;;;;;;;;;;5036265;28;20207;-69
2023/05/17 10:19:24;;;;;;;8.77;2.53;;;;;;;;;;5036180;28;20644;-69
2023/05/17 10:21:53;;;;;;;13.60;2.93;;;;;;;;;;5035378;28;20186;-69
2023/05/17 10:24:23;;;;;;;8.43;2.40;;;;;;;;;;5053640;28;20257;-69
2023/05/17 10:26:50;;;;;;;10.37;2.63;;;;;;;;;;5053350;28;20624;-68
2023/05/17 10:29:16;;;;;;;10.10;2.70;;;;;;;;;;5035368;28;20175;-68
2023/05/17 10:31:43;;;;;;;5.97;2.30;;;;;;;;;;5035552;28;20189;-69
2023/05/17 10:34:10;;;;;;;6.23;2.53;;;;;;;;;;5053324;28;20174;-69
2023/05/17 10:36:36;;;;;;;10.27;2.60;;;;;;;;;;5035140;28;20179;-69
2023/05/17 10:39:06;;;;;;;9.40;2.57;;;;;;;;;;5035886;28;20191;-69
2023/05/17 10:41:33;;;;;;;8.70;2.37;;;;;;;;;;5052915;28;20178;-70
2023/05/17 10:44:01;;;;;;;7.00;2.30;;;;;;;;;;5052699;28;20210;-69
2023/05/17 10:46:29;;;;;;;7.30;2.17;;;;;;;;;;5053470;28;20202;-68
2023/05/17 10:48:57;;;;;;;8.70;2.50;;;;;;;;;;5036211;28;20174;-68
2023/05/17 10:51:23;;;;;;;8.57;2.30;;;;;;;;;;5054295;28;20631;-69
2023/05/17 10:54:08;;;;;;;13.33;3.37;;;;;;;;;;5054088;28;20217;-69
2023/05/17 10:56:35;;;;;;;12.90;2.80;;;;;;;;;;5035318;28;20183;-69
2023/05/17 10:59:21;;;;;;;10.57;2.93;;;;;;;;;;5052817;28;20233;-68
2023/05/17 11:02:05;;;;;;;11.63;3.17;;;;;;;;;;5052796;28;20175;-68
2023/05/17 11:04:41;;;;;;;8.60;2.90;;;;;;;;;;5034741;28;20197;-69
2023/05/17 11:07:17;;;;;;;3.90;1.83;;;;;;;;;;5034680;28;20579;-69
2023/05/17 11:09:44;;;;;;;8.20;2.50;;;;;;;;;;5052922;28;20175;-68
2023/05/17 11:12:10;;;;;;;12.80;3.20;;;;;;;;;;5053751;28;20746;-69
2023/05/17 11:14:45;;;;;;;7.50;2.20;;;;;;;;;;5052517;28;20171;-69
2023/05/17 11:17:13;;;;;;;9.90;2.90;;;;;;;;;;5052415;28;20185;-69
2023/05/17 11:19:48;;;;;;;11.97;2.33;;;;;;;;;;5052460;28;20175;-68
2023/05/17 11:22:15;;;;;;;6.60;2.60;;;;;;;;;;5034573;28;20232;-68
2023/05/17 11:24:44;;;;;;;12.50;2.43;;;;;;;;;;5035641;28;20186;-69
2023/05/17 11:27:11;;;;;;;6.53;2.50;;;;;;;;;;5055774;28;20376;-68
2023/05/17 11:29:40;;;;;;;6.20;2.37;;;;;;;;;;5056151;28;20178;-68
2023/05/17 11:32:07;;;;;;;8.83;2.40;;;;;;;;;;5038253;28;20679;-67
2023/05/17 11:34:33;;;;;;;8.57;3.30;;;;;;;;;;5055740;28;20178;-67
2023/05/17 11:36:59;;;;;;;12.70;3.17;;;;;;;;;;5037899;28;20604;-68
2023/05/17 11:39:25;;;;;;;7.90;2.40;;;;;;;;;;5037804;28;20186;-68
2023/05/17 11:41:52;;;;;;;9.70;2.70;;;;;;;;;;5056143;28;20178;-69
2023/05/17 11:44:25;;;;;;;11.40;3.07;;;;;;;;;;5037909;28;20183;-69
2023/05/17 11:46:52;;;;;;;6.40;2.40;;;;;;;;;;5055591;28;20209;-68
2023/05/17 11:49:18;;;;;;;9.40;2.70;;;;;;;;;;5037946;28;20582;-69
2023/05/17 11:51:45;;;;;;;10.73;3.00;;;;;;;;;;5037638;28;20182;-68
2023/05/17 11:54:14;;;;;;;9.67;2.83;;;;;;;;;;5055737;28;20175;-69
2023/05/17 11:56:40;;;;;;;8.97;2.97;;;;;;;;;;5055371;28;20623;-69
2023/05/17 11:59:06;;;;;;;7.37;2.80;;;;;;;;;;5037467;28;20174;-68
2023/05/17 12:01:42;;;;;;;6.67;2.50;;;;;;;;;;5037376;28;20561;-69
2023/05/17 12:04:08;;;;;;;6.73;2.50;;;;;;;;;;5037413;28;20182;-69
2023/05/17 12:06:35;;;;;;;4.90;2.20;;;;;;;;;;5041201;28;20293;-69
2023/05/17 12:09:02;;;;;;;9.63;2.63;;;;;;;;;;5040144;28;20246;-68
2023/05/17 12:11:28;;;;;;;7.17;2.80;;;;;;;;;;5039539;28;20178;-68
2023/05/17 12:13:54;;;;;;;6.73;2.87;;;;;;;;;;5037719;28;20706;-69
2023/05/17 12:16:24;;;;;;;8.70;2.90;;;;;;;;;;5037215;28;20191;-69
2023/05/17 12:18:51;;;;;;;9.63;2.87;;;;;;;;;;5055245;28;20182;-69
2023/05/17 12:21:18;;;;;;;8.87;2.80;;;;;;;;;;5037117;28;20182;-69
2023/05/17 12:23:45;;;;;;;7.63;2.30;;;;;;;;;;5055254;28;20194;-69
2023/05/17 12:26:15;;;;;;;8.27;2.03;;;;;;;;;;5037026;28;20241;-69
2023/05/17 12:28:43;;;;;;;7.07;2.13;;;;;;;;;;5037110;28;20228;-69
2023/05/17 12:31:12;;;;;;;9.53;2.60;;;;;;;;;;5054996;28;20261;-69
2023/05/17 12:33:40;;;;;;;6.47;2.60;;;;;;;;;;5054842;28;20261;-69
2023/05/17 12:36:07;;;;;;;5.37;2.50;;;;;;;;;;5053853;28;20648;-69
2023/05/17 12:38:34;;;;;;;8.23;2.90;;;;;;;;;;5054797;28;20175;-68
2023/05/17 12:41:01;;;;;;;7.00;2.70;;;;;;;;;;5054983;28;20403;-68
2023/05/17 12:43:28;;;;;;;6.70;2.50;;;;;;;;;;5054277;28;20215;-68
2023/05/17 12:45:55;;;;;;;10.60;2.90;;;;;;;;;;5054402;28;20259;-68
2023/05/17 12:48:25;;;;;;;8.47;2.73;;;;;;;;;;5036573;28;20178;-68
2023/05/17 12:50:54;;;;;;;8.53;2.57;;;;;;;;;;5036714;28;20178;-68
2023/05/17 12:53:20;;;;;;;6.03;2.73;;;;;;;;;;5054301;28;20195;-68
2023/05/17 12:55:47;;;;;;;8.33;2.50;;;;;;;;;;5054258;28;20182;-68
2023/05/17 12:58:13;;;;;;;3.33;2.13;;;;;;;;;;5036403;28;20182;-68
2023/05/17 13:00:39;;;;;;;7.73;2.93;;;;;;;;;;5055561;28;20185;-68
2023/05/17 13:03:09;;;;;;;7.87;2.93;;;;;;;;;;5055474;28;20198;-68
2023/05/17 13:05:35;;;;;;;10.20;2.90;;;;;;;;;;5053995;28;20232;-68
2023/05/17 13:08:20;;;;;;;9.10;2.87;;;;;;;;;;5036095;28;20279;-68
2023/05/17 13:10:46;;;;;;;8.77;2.67;;;;;;;;;;5036091;28;20186;-68
2023/05/17 13:13:18;;;;;;;6.80;2.63;;;;;;;;;;5054147;28;20706;-68
2023/05/17 13:15:48;;;;;;;7.27;2.57;;;;;;;;;;5036026;28;20178;-68
2023/05/17 13:18:15;;;;;;;7.77;2.63;;;;;;;;;;5053798;28;20670;-68
2023/05/17 13:20:41;;;;;;;6.93;2.80;;;;;;;;;;5036012;28;20695;-69
2023/05/17 13:23:07;;;;;;;5.87;1.90;;;;;;;;;;5035961;28;20251;-68
2023/05/17 13:25:35;;;;;;;4.33;2.40;;;;;;;;;;5054461;28;20614;-67
2023/05/17 13:28:01;;;;;;;4.27;2.47;;;;;;;;;;5035880;28;20270;-67
2023/05/17 13:30:27;;;;;;;8.77;2.50;;;;;;;;;;5053887;28;20592;-68
2023/05/17 13:32:54;;;;;;;7.43;2.50;;;;;;;;;;5035807;28;20251;-69
2023/05/17 13:35:20;;;;;;;7.17;2.67;;;;;;;;;;5053547;28;20323;-67
2023/05/17 13:37:46;;;;;;;7.47;2.60;;;;;;;;;;5053422;28;20269;-67
2023/05/17 13:40:12;;;;;;;9.20;2.60;;;;;;;;;;5035404;28;20178;-68
2023/05/17 13:42:38;;;;;;;10.77;3.43;;;;;;;;;;5053380;28;20268;-68
2023/05/17 13:45:07;;;;;;;9.30;2.63;;;;;;;;;;5035336;28;20182;-68
2023/05/17 13:47:33;;;;;;;;;;;;;;;;;;5053962;28;20021;-68
2023/05/17 13:49:59;;;;;;;7.63;3.10;;;;;;;;;;5034339;28;20879;-68
2023/05/17 13:52:26;;;;;;;5.43;2.73;;;;;;;;;;5035415;28;20576;-68
2023/05/17 13:54:52;;;;;;;8.00;2.77;;;;;;;;;;5035468;28;20178;-67
2023/05/17 13:57:17;;;;;;;5.77;2.50;;;;;;;;;;5035612;28;20240;-67
2023/05/17 13:59:44;;;;;;;7.30;2.97;;;;;;;;;;5036366;28;20178;-67
2023/05/17 14:02:10;;;;;;;4.90;2.70;;;;;;;;;;5053113;28;20202;-67
2023/05/17 14:04:36;;;;;;;5.70;2.80;;;;;;;;;;5053055;28;20190;-67
2023/05/17 14:07:02;;;;;;;5.23;2.57;;;;;;;;;;5053776;28;20612;-67
2023/05/17 14:09:33;;;;;;;8.90;3.20;;;;;;;;;;5053353;28;20171;-68
2023/05/17 14:12:00;;;;;;;6.67;3.00;;;;;;;;;;5053016;28;20151;-68
2023/05/17 14:14:26;;;;;;;7.37;2.77;;;;;;;;;;5035144;28;20174;-68
2023/05/17 14:16:53;;;;;;;6.43;2.83;;;;;;;;;;5052848;28;20248;-68
2023/05/17 14:19:19;;;;;;;7.30;3.13;;;;;;;;;;5052868;28;20181;-68
2023/05/17 14:21:45;;;;;;;6.20;2.93;;;;;;;;;;5035219;28;20185;-68
2023/05/17 14:24:11;;;;;;;6.87;3.17;;;;;;;;;;5035161;28;20206;-68
2023/05/17 14:26:37;;;;;;;9.73;3.40;;;;;;;;;;5052905;28;20242;-68
2023/05/17 14:29:05;;;;;;;8.77;3.40;;;;;;;;;;5034932;28;20178;-68
2023/05/17 14:31:31;;;;;;;8.60;2.57;;;;;;;;;;5035028;28;20571;-68
2023/05/17 14:33:57;;;;;;;7.23;3.00;;;;;;;;;;5052853;28;20190;-68
2023/05/17 14:36:23;;;;;;;10.23;3.33;;;;;;;;;;5053376;28;20244;-69